Time;durP1;ratioP1;P1;durP2;ratioP2;P2;SDS_P1;SDS_P2;PMS_P1;PMS_P2;Temp;Humidity;BMP_temperature;BMP_pressure;BME280_temperature;BME280_humidity;BME280_pressure;Samples;Min_cycle;Max_cycle;Signal;HPM_P1;HPM_P2
2023/11/13 00:01:55;;;;;;;;;;;;;;;3.95;100.00;100224.56;5011511;28;19929;-82
2023/11/13 00:04:28;;;;;;;;;;;;;;;3.95;100.00;100214.63;5007360;28;19921;-81
2023/11/13 00:07:03;;;;;;;;;;;;;;;3.91;100.00;100217.00;5009866;28;19921;-81
2023/11/13 00:09:31;;;;;;;;;;;;;;;3.90;100.00;100209.97;4997098;28;20294;-80
2023/11/13 00:11:59;;;;;;;;;;;;;;;3.79;100.00;100213.56;5011472;28;19928;-82
2023/11/13 00:14:32;;;;;;;;;;;;;;;3.75;100.00;100209.75;4994194;28;20314;-82
2023/11/13 00:17:05;;;;;;;;;;;;;;;3.67;100.00;100196.69;5010902;28;20238;-81
2023/11/13 00:19:33;;;;;;;;;;;;;;;3.59;100.00;100195.25;5012837;28;20397;-82
2023/11/13 00:22:07;;;;;;;;;;;;;;;3.57;100.00;100187.41;5009388;28;19925;-81
2023/11/13 00:24:40;;;;;;;;;;;;;;;3.55;100.00;100183.34;5011766;28;19922;-81
2023/11/13 00:27:13;;;;;;;;;;;;;;;3.57;100.00;100190.09;5011020;28;19925;-81
2023/11/13 00:29:46;;;;;;;;;;;;;;;3.53;100.00;100177.38;5011734;28;19928;-81
2023/11/13 00:32:14;;;;;;;;;;;;;;;3.46;100.00;100174.84;5007988;28;20404;-83
2023/11/13 00:34:47;;;;;;;;;;;;;;;3.47;100.00;100179.19;4988148;28;20374;-82
2023/11/13 00:37:16;;;;;;;;;;;;;;;3.36;100.00;100188.97;5011074;28;19929;-81
2023/11/13 00:39:49;;;;;;;;;;;;;;;3.38;100.00;100196.78;5013208;28;19921;-81
2023/11/13 00:42:17;;;;;;;;;;;;;;;3.32;100.00;100192.41;5011232;28;20482;-81
2023/11/13 00:44:45;;;;;;;;;;;;;;;3.32;100.00;100198.56;5012299;28;19921;-81
2023/11/13 00:47:13;;;;;;;;;;;;;;;3.31;100.00;100212.28;5010452;28;19921;-81
2023/11/13 00:49:46;;;;;;;;;;;;;;;3.29;100.00;100209.81;5003885;28;19921;-84
2023/11/13 00:52:21;;;;;;;;;;;;;;;3.28;100.00;100207.38;5006414;28;20607;-82
2023/11/13 00:54:56;;;;;;;;;;;;;;;3.26;100.00;100213.00;5012605;28;20400;-82
2023/11/13 00:57:28;;;;;;;;;;;;;;;3.25;100.00;100214.06;5007796;28;20374;-82
2023/11/13 01:00:03;;;;;;;;;;;;;;;3.21;100.00;100202.97;5012906;28;19929;-82
2023/11/13 01:02:32;;;;;;;;;;;;;;;3.12;100.00;100211.66;5009326;28;19948;-82
2023/11/13 01:04:59;;;;;;;;;;;;;;;3.11;100.00;100218.94;5017195;28;19928;-82
2023/11/13 01:07:34;;;;;;;;;;;;;;;3.15;100.00;100227.31;5008613;28;19921;-81
2023/11/13 01:10:02;;;;;;;;;;;;;;;3.17;100.00;100219.84;5009401;28;20903;-81
2023/11/13 01:12:30;;;;;;;;;;;;;;;3.18;100.00;100208.03;5011753;28;20284;-82
2023/11/13 01:14:58;;;;;;;;;;;;;;;3.15;100.00;100208.47;5012064;28;19944;-81
2023/11/13 01:17:26;;;;;;;;;;;;;;;3.11;100.00;100193.91;5011815;28;20266;-83
2023/11/13 01:19:59;;;;;;;;;;;;;;;3.11;100.00;100194.72;5013626;28;19928;-82
2023/11/13 01:22:27;;;;;;;;;;;;;;;3.10;100.00;100197.66;5006819;28;19921;-82
2023/11/13 01:24:56;;;;;;;;;;;;;;;3.13;100.00;100203.34;5012141;28;19929;-81
2023/11/13 01:27:24;;;;;;;;;;;;;;;3.14;100.00;100194.22;5010851;28;19926;-82
2023/11/13 01:29:57;;;;;;;;;;;;;;;3.08;100.00;100202.44;4995861;28;19929;-81
2023/11/13 01:32:26;;;;;;;;;;;;;;;3.08;100.00;100199.75;5009694;28;19921;-82
2023/11/13 01:34:54;;;;;;;;;;;;;;;3.04;100.00;100196.75;4990676;28;19929;-81
2023/11/13 01:37:22;;;;;;;;;;;;;;;3.05;100.00;100193.81;5012457;28;19922;-81
2023/11/13 01:39:56;;;;;;;;;;;;;;;2.96;100.00;100197.16;5004603;28;19929;-81
2023/11/13 01:42:29;;;;;;;;;;;;;;;2.89;100.00;100200.78;5009305;28;19928;-81
2023/11/13 01:44:58;;;;;;;;;;;;;;;2.97;100.00;100206.81;5008007;28;19929;-81
2023/11/13 01:47:31;;;;;;;;;;;;;;;2.86;100.00;100212.03;5008889;28;19922;-82
2023/11/13 01:50:00;;;;;;;;;;;;;;;2.92;100.00;100221.00;5008780;28;20401;-81
2023/11/13 01:52:33;;;;;;;;;;;;;;;2.91;100.00;100218.56;4994205;28;19925;-81
2023/11/13 01:55:04;;;;;;;;;;;;;;;2.87;100.00;100220.88;5008073;28;19930;-82
2023/11/13 01:57:32;;;;;;;;;;;;;;;2.90;100.00;100207.00;5009762;28;19985;-81
2023/11/13 02:00:06;;;;;;;;;;;;;;;2.92;100.00;100204.06;5009110;28;19929;-81
2023/11/13 02:02:41;;;;;;;;;;;;;;;2.87;100.00;100199.38;5009606;28;20374;-82
2023/11/13 02:05:15;;;;;;;;;;;;;;;2.87;100.00;100208.28;5006848;28;19937;-81
2023/11/13 02:07:43;;;;;;;;;;;;;;;2.89;100.00;100198.09;5008995;28;19922;-81
2023/11/13 02:10:17;;;;;;;;;;;;;;;2.87;100.00;100194.00;5006429;28;19932;-80
2023/11/13 02:12:45;;;;;;;;;;;;;;;2.85;100.00;100190.75;5008299;28;19922;-82
2023/11/13 02:15:13;;;;;;;;;;;;;;;2.82;100.00;100185.88;5005956;28;19933;-82
2023/11/13 02:18:01;;;;;;;;;;;;;;;2.69;100.00;100187.78;5007056;28;19928;-81
2023/11/13 02:20:34;;;;;;;;;;;;;;;2.70;100.00;100186.72;5011025;28;19932;-82
2023/11/13 02:23:02;;;;;;;;;;;;;;;2.70;100.00;100181.34;4998430;28;20382;-81
2023/11/13 02:25:35;;;;;;;;;;;;;;;2.66;100.00;100182.06;5010778;28;19921;-81
2023/11/13 02:28:04;;;;;;;;;;;;;;;2.60;100.00;100197.28;5008243;28;19921;-81
2023/11/13 02:30:38;;;;;;;;;;;;;;;2.60;100.00;100196.47;5006049;28;19929;-81
2023/11/13 02:33:06;;;;;;;;;;;;;;;2.62;100.00;100200.53;5007915;28;19921;-81
2023/11/13 02:35:34;;;;;;;;;;;;;;;2.64;100.00;100197.63;4991522;28;19921;-82
2023/11/13 02:38:03;;;;;;;;;;;;;;;2.62;100.00;100199.72;5012524;28;19925;-81
2023/11/13 02:40:32;;;;;;;;;;;;;;;2.62;100.00;100191.66;5012592;28;19928;-81
2023/11/13 02:43:05;;;;;;;;;;;;;;;2.60;100.00;100199.97;5010218;28;20289;-80
2023/11/13 02:45:33;;;;;;;;;;;;;;;2.54;100.00;100206.28;5010994;28;19921;-81
2023/11/13 02:48:01;;;;;;;;;;;;;;;2.54;100.00;100206.28;5007973;28;19928;-81
2023/11/13 02:50:35;;;;;;;;;;;;;;;2.57;100.00;100213.88;5010829;28;19921;-80
2023/11/13 02:53:07;;;;;;;;;;;;;;;2.58;100.00;100210.13;5011743;28;20286;-81
2023/11/13 02:55:42;;;;;;;;;;;;;;;2.51;100.00;100210.28;5009755;28;19921;-81
2023/11/13 02:58:10;;;;;;;;;;;;;;;2.46;100.00;100212.84;5007971;28;19921;-81
2023/11/13 03:00:38;;;;;;;;;;;;;;;2.33;100.00;100208.53;5007503;28;19921;-82
2023/11/13 03:03:11;;;;;;;;;;;;;;;2.37;100.00;100211.59;4988695;28;19922;-82
2023/11/13 03:05:39;;;;;;;;;;;;;;;2.38;100.00;100205.97;5005010;28;19926;-81
2023/11/13 03:08:12;;;;;;;;;;;;;;;2.37;100.00;100195.47;5010700;28;19936;-84
2023/11/13 03:10:42;;;;;;;;;;;;;;;2.34;100.00;100191.38;5011569;28;19930;-81
2023/11/13 03:13:10;;;;;;;;;;;;;;;2.35;100.00;100184.16;5011860;28;20697;-82
2023/11/13 03:15:38;;;;;;;;;;;;;;;2.25;100.00;100190.16;5013731;28;20286;-82
2023/11/13 03:18:14;;;;;;;;;;;;;;;2.18;100.00;100184.91;5015342;28;19922;-80
2023/11/13 03:20:47;;;;;;;;;;;;;;;2.15;100.00;100190.72;4995009;28;19921;-81
2023/11/13 03:23:15;;;;;;;;;;;;;;;2.14;100.00;100194.47;5015340;28;19921;-81
2023/11/13 03:25:44;;;;;;;;;;;;;;;1.97;100.00;100198.91;5014776;28;19921;-81
2023/11/13 03:28:19;;;;;;;;;;;;;;;1.96;100.00;100202.66;5007622;28;19921;-81
2023/11/13 03:30:52;;;;;;;;;;;;;;;1.85;100.00;100207.78;5014801;28;19926;-81
2023/11/13 03:33:25;;;;;;;;;;;;;;;1.78;100.00;100217.00;5011024;28;20289;-81
2023/11/13 03:35:53;;;;;;;;;;;;;;;1.77;100.00;100210.81;5014277;28;19921;-80
2023/11/13 03:38:26;;;;;;;;;;;;;;;1.65;100.00;100207.31;4999442;28;19928;-82
2023/11/13 03:41:01;;;;;;;;;;;;;;;1.66;100.00;100214.31;5009457;28;19921;-80
2023/11/13 03:43:29;;;;;;;;;;;;;;;1.68;100.00;100215.69;5008721;28;19930;-82
2023/11/13 03:46:02;;;;;;;;;;;;;;;1.54;100.00;100211.63;5008101;28;19929;-81
2023/11/13 03:48:30;;;;;;;;;;;;;;;1.48;100.00;100202.63;5010606;28;19928;-81
2023/11/13 03:50:58;;;;;;;;;;;;;;;1.51;100.00;100201.34;5013781;28;20015;-82
2023/11/13 03:53:26;;;;;;;;;;;;;;;1.68;100.00;100210.34;5005452;28;19922;-81
2023/11/13 03:55:54;;;;;;;;;;;;;;;1.69;100.00;100211.16;5008395;28;19930;-81
2023/11/13 03:58:28;;;;;;;;;;;;;;;1.77;100.00;100210.00;5010325;28;19921;-80
2023/11/13 04:01:01;;;;;;;;;;;;;;;1.78;100.00;100207.09;5010252;28;20610;-81
2023/11/13 04:03:34;;;;;;;;;;;;;;;1.79;100.00;100200.66;4994340;28;20563;-81
2023/11/13 04:06:02;;;;;;;;;;;;;;;1.77;100.00;100207.31;5009462;28;20544;-81
2023/11/13 04:08:35;;;;;;;;;;;;;;;1.73;100.00;100196.25;5012066;28;19921;-82
2023/11/13 04:11:08;;;;;;;;;;;;;;;1.69;100.00;100203.94;4995358;28;19932;-82
2023/11/13 04:13:44;;;;;;;;;;;;;;;1.62;100.00;100202.44;5010992;28;19936;-81
2023/11/13 04:16:12;;;;;;;;;;;;;;;1.57;100.00;100203.09;5009727;28;20332;-81
2023/11/13 04:18:40;;;;;;;;;;;;;;;1.59;100.00;100202.88;5009547;28;19944;-81
2023/11/13 04:21:13;;;;;;;;;;;;;;;1.55;100.00;100205.22;5007231;28;19922;-81
2023/11/13 04:23:46;;;;;;;;;;;;;;;1.44;100.00;100200.66;5008265;28;19921;-81
2023/11/13 04:26:14;;;;;;;;;;;;;;;1.44;100.00;100206.03;5011134;28;20317;-82
2023/11/13 04:28:43;;;;;;;;;;;;;;;1.25;100.00;100206.09;5007188;28;19925;-81
2023/11/13 04:31:16;;;;;;;;;;;;;;;1.17;100.00;100211.78;5007711;28;19928;-81
2023/11/13 04:33:45;;;;;;;;;;;;;;;1.32;100.00;100200.63;4989423;28;19929;-82
2023/11/13 04:36:13;;;;;;;;;;;;;;;1.44;100.00;100197.97;5013806;28;19928;-80
2023/11/13 04:38:46;;;;;;;;;;;;;;;1.35;100.00;100198.31;5012900;28;20267;-81
2023/11/13 04:41:16;;;;;;;;;;;;;;;1.42;100.00;100202.75;5013071;28;19921;-80
2023/11/13 04:43:46;;;;;;;;;;;;;;;1.45;100.00;100194.22;5000466;28;19928;-82
2023/11/13 04:46:14;;;;;;;;;;;;;;;1.47;100.00;100194.81;5011678;28;19921;-81
2023/11/13 04:48:42;;;;;;;;;;;;;;;1.45;100.00;100200.44;5009606;28;20382;-81
2023/11/13 04:51:10;;;;;;;;;;;;;;;1.44;100.00;100196.09;5008391;28;19928;-82
2023/11/13 04:53:43;;;;;;;;;;;;;;;1.43;100.00;100207.06;5010384;28;19922;-82
2023/11/13 04:56:12;;;;;;;;;;;;;;;1.50;100.00;100208.56;5012750;28;19921;-81
2023/11/13 04:58:40;;;;;;;;;;;;;;;1.52;100.00;100203.00;4991400;28;19932;-82
2023/11/13 05:01:14;;;;;;;;;;;;;;;1.45;100.00;100203.09;5007706;28;19928;-81
2023/11/13 05:03:42;;;;;;;;;;;;;;;1.42;100.00;100206.22;5010752;28;19921;-81
2023/11/13 05:06:13;;;;;;;;;;;;;;;1.38;100.00;100207.72;5009835;28;19922;-81
2023/11/13 05:08:41;;;;;;;;;;;;;;;1.40;100.00;100194.13;5010555;28;20274;-80
2023/11/13 05:11:09;;;;;;;;;;;;;;;1.49;100.00;100193.56;5010229;28;20642;-85
2023/11/13 05:13:42;;;;;;;;;;;;;;;1.47;100.00;100187.59;5009254;28;19929;-82
2023/11/13 05:16:16;;;;;;;;;;;;;;;1.45;100.00;100189.69;5006219;28;19937;-81
2023/11/13 05:18:46;;;;;;;;;;;;;;;1.45;100.00;100186.19;5009015;28;19921;-81
2023/11/13 05:21:14;;;;;;;;;;;;;;;1.47;100.00;100179.53;5010900;28;19921;-81
2023/11/13 05:23:47;;;;;;;;;;;;;;;1.50;100.00;100203.22;5011548;28;19921;-81
2023/11/13 05:26:20;;;;;;;;;;;;;;;1.50;100.00;100200.53;4994811;28;19925;-83
2023/11/13 05:28:48;;;;;;;;;;;;;;;1.42;100.00;100203.53;5010960;28;19928;-81
2023/11/13 05:31:21;;;;;;;;;;;;;;;1.40;100.00;100199.47;5007892;28;19928;-81
2023/11/13 05:33:55;;;;;;;;;;;;;;;1.47;100.00;100200.19;5004778;28;19940;-81
2023/11/13 05:36:23;;;;;;;;;;;;;;;1.38;100.00;100202.38;5009735;28;20295;-82
2023/11/13 05:38:51;;;;;;;;;;;;;;;1.40;100.00;100197.59;4991691;28;19928;-81
2023/11/13 05:41:20;;;;;;;;;;;;;;;1.39;100.00;100206.69;5008609;28;19925;-83
2023/11/13 05:43:48;;;;;;;;;;;;;;;1.40;100.00;100202.16;5011250;28;19929;-84
2023/11/13 05:46:16;;;;;;;;;;;;;;;1.30;100.00;100208.09;4991569;28;19928;-83
2023/11/13 05:48:44;;;;;;;;;;;;;;;1.36;100.00;100196.44;5008496;28;20274;-81
2023/11/13 05:51:20;;;;;;;;;;;;;;;1.38;100.00;100204.25;5007239;28;19921;-82
2023/11/13 05:53:53;;;;;;;;;;;;;;;1.33;100.00;100203.06;5008380;28;19922;-82
2023/11/13 05:56:26;;;;;;;;;;;;;;;1.32;100.00;100206.00;5010613;28;19921;-82
2023/11/13 05:58:54;;;;;;;;;;;;;;;1.40;100.00;100211.00;5010584;28;19928;-81
2023/11/13 06:01:22;;;;;;;;;;;;;;;1.35;100.00;100198.31;5009216;28;19932;-83
2023/11/13 06:03:50;;;;;;;;;;;;;;;1.34;100.00;100204.72;5007032;28;19926;-82
2023/11/13 06:06:19;;;;;;;;;;;;;;;1.35;100.00;100214.41;5006989;28;19944;-83
2023/11/13 06:08:47;;;;;;;;;;;;;;;1.35;100.00;100214.41;4991448;28;19925;-82
2023/11/13 06:11:15;;;;;;;;;;;;;;;1.36;100.00;100215.19;4992797;28;19925;-84
2023/11/13 06:13:46;;;;;;;;;;;;;;;1.32;100.00;100217.53;5007609;28;19921;-82
2023/11/13 06:16:14;;;;;;;;;;;;;;;1.28;100.00;100213.66;5007886;28;19928;-81
2023/11/13 06:18:47;;;;;;;;;;;;;;;1.26;100.00;100215.78;5009069;28;19925;-82
2023/11/13 06:21:15;;;;;;;;;;;;;;;1.29;100.00;100211.81;5008716;28;19929;-81
2023/11/13 06:23:49;;;;;;;;;;;;;;;1.22;100.00;100205.75;5003882;28;19930;-82
2023/11/13 06:26:18;;;;;;;;;;;;;;;1.19;100.00;100201.66;4990915;28;19921;-83
2023/11/13 06:28:46;;;;;;;;;;;;;;;1.17;100.00;100190.34;5008003;28;19921;-81
2023/11/13 06:31:14;;;;;;;;;;;;;;;1.21;100.00;100196.88;5008859;28;20313;-82
2023/11/13 06:33:47;;;;;;;;;;;;;;;1.17;100.00;100201.88;5013290;28;20019;-82
2023/11/13 06:36:15;;;;;;;;;;;;;;;1.16;100.00;100194.88;5009827;28;19971;-82
2023/11/13 06:38:43;;;;;;;;;;;;;;;1.07;100.00;100185.53;5010711;28;19921;-82
2023/11/13 06:41:12;;;;;;;;;;;;;;;1.12;100.00;100183.00;5015569;28;19945;-82
2023/11/13 06:43:45;;;;;;;;;;;;;;;1.10;100.00;100181.59;5014538;28;19921;-81
2023/11/13 06:46:13;;;;;;;;;;;;;;;1.07;100.00;100184.72;5015704;28;19922;-82
2023/11/13 06:48:42;;;;;;;;;;;;;;;1.12;100.00;100177.63;5014412;28;19925;-81
2023/11/13 06:51:13;;;;;;;;;;;;;;;1.05;100.00;100189.47;5013997;28;19928;-82
2023/11/13 06:53:46;;;;;;;;;;;;;;;1.06;100.00;100178.53;4997844;28;19928;-82
2023/11/13 06:56:16;;;;;;;;;;;;;;;1.11;100.00;100183.22;5015188;28;19921;-82
2023/11/13 06:58:49;;;;;;;;;;;;;;;1.07;100.00;100185.53;5012299;28;19921;-85
2023/11/13 07:01:22;;;;;;;;;;;;;;;1.10;100.00;100179.72;5015283;28;19921;-84
2023/11/13 07:03:50;;;;;;;;;;;;;;;0.98;100.00;100174.34;4997641;28;20068;-83
2023/11/13 07:06:24;;;;;;;;;;;;;;;1.00;100.00;100176.78;5011508;28;19925;-82
2023/11/13 07:08:58;;;;;;;;;;;;;;;0.99;100.00;100177.81;5015052;28;19929;-83
2023/11/13 07:11:27;;;;;;;;;;;;;;;0.97;100.00;100179.91;5010868;28;20286;-83
2023/11/13 07:13:55;;;;;;;;;;;;;;;0.98;100.00;100173.50;5016477;28;19930;-82
2023/11/13 07:16:28;;;;;;;;;;;;;;;0.94;100.00;100183.88;5013741;28;20413;-82
2023/11/13 07:18:58;;;;;;;;;;;;;;;0.94;100.00;100177.69;5013938;28;20286;-82
2023/11/13 07:21:26;;;;;;;;;;;;;;;0.93;100.00;100176.88;5009623;28;19921;-82
2023/11/13 07:23:59;;;;;;;;;;;;;;;0.96;100.00;100176.41;5014747;28;19921;-82
2023/11/13 07:26:28;;;;;;;;;;;;;;;0.94;100.00;100172.31;5010391;28;19937;-82
2023/11/13 07:29:02;;;;;;;;;;;;;;;1.05;100.00;100184.97;4992687;28;19934;-84
2023/11/13 07:31:30;;;;;;;;;;;;;;;1.02;100.00;100186.22;5008539;28;19925;-84
2023/11/13 07:33:58;;;;;;;;;;;;;;;0.94;100.00;100186.56;5009606;28;19921;-83
2023/11/13 07:36:31;;;;;;;;;;;;;;;0.98;100.00;100190.41;5010729;28;19933;-85
2023/11/13 07:39:04;;;;;;;;;;;;;;;1.01;100.00;100189.94;5011004;28;19925;-86
2023/11/13 07:41:39;;;;;;;;;;;;;;;1.00;100.00;100185.63;5012047;28;19929;-84
2023/11/13 07:44:12;;;;;;;;;;;;;;;1.05;100.00;100195.69;4993248;28;19936;-85
2023/11/13 07:46:45;;;;;;;;;;;;;;;1.00;100.00;100190.19;4993669;28;19933;-82
2023/11/13 07:49:18;;;;;;;;;;;;;;;1.05;100.00;100184.13;5009157;28;20305;-83
2023/11/13 07:51:51;;;;;;;;;;;;;;;1.16;100.00;100178.81;5008632;28;20654;-82
2023/11/13 07:54:19;;;;;;;;;;;;;;;1.22;100.00;100171.69;5008024;28;19933;-83
2023/11/13 07:56:53;;;;;;;;;;;;;;;1.22;100.00;100171.69;5010220;28;19921;-83
2023/11/13 07:59:21;;;;;;;;;;;;;;;1.27;100.00;100177.19;5010439;28;20304;-85
2023/11/13 08:01:54;;;;;;;;;;;;;;;1.30;100.00;100166.00;5006796;28;19921;-85
2023/11/13 08:04:22;;;;;;;;;;;;;;;1.29;100.00;100172.41;5010152;28;19921;-84
2023/11/13 08:06:55;;;;;;;;;;;;;;;1.27;100.00;100158.44;4997418;28;19925;-83
2023/11/13 08:09:23;;;;;;;;;;;;;;;1.25;100.00;100151.66;5009429;28;19925;-82
2023/11/13 08:11:52;;;;;;;;;;;;;;;1.23;100.00;100151.91;5008772;28;19921;-85
2023/11/13 08:14:25;;;;;;;;;;;;;;;1.28;100.00;100148.53;5008881;28;19929;-84
2023/11/13 08:16:58;;;;;;;;;;;;;;;1.27;100.00;100146.88;5009205;28;19921;-83
2023/11/13 08:19:31;;;;;;;;;;;;;;;1.34;100.00;100136.84;5010999;28;20666;-84
2023/11/13 08:22:00;;;;;;;;;;;;;;;1.40;100.00;100148.53;4991423;28;19932;-84
2023/11/13 08:24:35;;;;;;;;;;;;;;;1.49;100.00;100147.13;5009442;28;20301;-84
2023/11/13 08:27:04;;;;;;;;;;;;;;;1.56;100.00;100141.66;4994779;28;19929;-85
2023/11/13 08:29:32;;;;;;;;;;;;;;;1.62;100.00;100133.50;5003437;28;19932;-85
2023/11/13 08:32:05;;;;;;;;;;;;;;;1.66;100.00;100131.97;5004807;28;20532;-85
2023/11/13 08:34:33;;;;;;;;;;;;;;;1.67;100.00;100138.16;5012144;28;19930;-83
2023/11/13 08:37:06;;;;;;;;;;;;;;;1.66;100.00;100128.50;5001700;28;19922;-85
2023/11/13 08:39:37;;;;;;;;;;;;;;;1.73;100.00;100123.81;5010871;28;19922;-85
2023/11/13 08:42:08;;;;;;;;;;;;;;;1.74;100.00;100113.88;5010518;28;19921;-83
2023/11/13 08:44:36;;;;;;;;;;;;;;;1.78;100.00;100118.56;5005998;28;19928;-86
2023/11/13 08:47:05;;;;;;;;;;;;;;;1.83;100.00;100118.66;4949113;28;20017;-87
2023/11/13 08:49:33;;;;;;;;;;;;;;;1.94;100.00;100110.84;4973294;28;19991;-84
2023/11/13 08:52:02;;;;;;;;;;;;;;;1.98;100.00;100099.38;4992613;28;19937;-86
2023/11/13 08:54:30;;;;;;;;;;;;;;;2.03;100.00;100107.53;4985460;28;19936;-85
2023/11/13 08:56:58;;;;;;;;;;;;;;;2.12;100.00;100102.59;4986499;28;19929;-86
2023/11/13 08:59:32;;;;;;;;;;;;;;;2.18;100.00;100101.69;4986379;28;19937;-84
2023/11/13 09:02:04;;;;;;;;;;;;;;;2.24;100.00;100097.22;4989160;28;19929;-84
2023/11/13 09:04:34;;;;;;;;;;;;;;;2.30;100.00;100082.00;4991674;28;19929;-84
2023/11/13 09:07:07;;;;;;;;;;;;;;;2.36;100.00;100078.34;4985456;28;19929;-85
2023/11/13 09:09:35;;;;;;;;;;;;;;;2.37;100.00;100078.13;4990683;28;19929;-85
2023/11/13 09:12:04;;;;;;;;;;;;;;;2.46;100.00;100081.25;4992084;28;19929;-85
2023/11/13 09:14:38;;;;;;;;;;;;;;;2.51;100.00;100083.19;4985981;28;19936;-83
2023/11/13 09:17:12;;;;;;;;;;;;;;;2.57;100.00;100086.78;4987942;28;19936;-84
2023/11/13 09:19:45;;;;;;;;;;;;;;;2.62;100.00;100081.53;4982263;28;20727;-84
2023/11/13 09:22:13;;;;;;;;;;;;;;;2.62;100.00;100074.25;4984337;28;19936;-85
2023/11/13 09:24:46;;;;;;;;;;;;;;;2.61;100.00;100069.97;4990063;28;20005;-85
2023/11/13 09:27:14;;;;;;;;;;;;;;;2.57;100.00;100060.75;4975601;28;19930;-83
2023/11/13 09:29:48;;;;;;;;;;;;;;;2.62;100.00;100066.22;4989992;28;20297;-85
2023/11/13 09:32:19;;;;;;;;;;;;;;;2.67;100.00;100060.13;4990379;28;19921;-85
2023/11/13 09:34:49;;;;;;;;;;;;;;;2.70;100.00;100055.06;4989580;28;19940;-83
2023/11/13 09:37:22;;;;;;;;;;;;;;;2.78;100.00;100053.06;4964601;28;19936;-85
2023/11/13 09:39:54;;;;;;;;;;;;;;;2.79;100.00;100047.44;4968083;28;19971;-85
2023/11/13 09:42:23;;;;;;;;;;;;;;;2.73;100.00;100037.66;4987236;28;19929;-84
2023/11/13 09:44:55;;;;;;;;;;;;;;;2.71;100.00;100048.63;4995394;28;19929;-82
2023/11/13 09:47:28;;;;;;;;;;;;;;;2.76;100.00;100039.03;4968766;28;19964;-85
2023/11/13 09:49:59;;;;;;;;;;;;;;;2.81;100.00;100034.56;4985547;28;19930;-84
2023/11/13 09:52:33;;;;;;;;;;;;;;;2.84;100.00;100031.38;4983692;28;19933;-83
2023/11/13 09:55:02;;;;;;;;;;;;;;;2.91;100.00;100031.22;4984383;28;19929;-85
2023/11/13 09:57:36;;;;;;;;;;;;;;;2.98;100.00;100025.69;4991675;28;19935;-85
2023/11/13 10:00:16;;;;;;;;;;;;;;;3.02;100.00;100022.25;4990612;28;19928;-85
2023/11/13 10:02:46;;;;;;;;;;;;;;;3.13;100.00;100019.72;4989506;28;19921;-84
2023/11/13 10:05:15;;;;;;;;;;;;;;;3.21;100.00;100017.41;4986885;28;19989;-84
2023/11/13 10:07:44;;;;;;;;;;;;;;;3.27;100.00;100014.81;4989046;28;19936;-82
2023/11/13 10:10:17;;;;;;;;;;;;;;;3.33;100.00;100006.56;4986510;28;19936;-83
2023/11/13 10:12:46;;;;;;;;;;;;;;;3.35;100.00;100009.81;4985552;28;21149;-82
2023/11/13 10:15:17;;;;;;;;;;;;;;;3.45;100.00;100009.13;4989621;28;19929;-84
2023/11/13 10:17:46;;;;;;;;;;;;;;;3.47;100.00;100001.63;4979886;28;19929;-84
2023/11/13 10:20:17;;;;;;;;;;;;;;;3.50;100.00;99994.94;4992233;28;19929;-83
2023/11/13 10:22:45;;;;;;;;;;;;;;;3.48;100.00;99992.50;4988901;28;19929;-84
2023/11/13 10:25:13;;;;;;;;;;;;;;;3.53;100.00;99995.25;4991651;28;20611;-83
2023/11/13 10:27:56;;;;;;;;;;;;;;;3.54;100.00;99983.44;4990838;28;19929;-83
2023/11/13 10:30:30;;;;;;;;;;;;;;;3.56;100.00;99985.88;4996000;28;20389;-84
2023/11/13 10:32:58;;;;;;;;;;;;;;;3.58;100.00;99981.06;4994633;28;19941;-84
2023/11/13 10:35:35;;;;;;;;;;;;;;;3.60;100.00;99986.19;4996904;28;19929;-83
2023/11/13 10:38:07;;;;;;;;;;;;;;;3.63;100.00;99983.00;4991347;28;20610;-84
2023/11/13 10:40:43;;;;;;;;;;;;;;;3.66;100.00;99979.78;4987196;28;19948;-83
2023/11/13 10:43:12;;;;;;;;;;;;;;;3.78;100.00;99967.00;4993815;28;19929;-83
2023/11/13 10:45:49;;;;;;;;;;;;;;;3.86;100.00;99955.00;4962543;28;19936;-82
2023/11/13 10:48:23;;;;;;;;;;;;;;;3.98;100.00;99950.28;4969218;28;19926;-82
2023/11/13 10:50:58;;;;;;;;;;;;;;;4.04;100.00;99937.69;4988039;28;19929;-81
2023/11/13 10:53:32;;;;;;;;;;;;;;;4.11;100.00;99927.50;4969987;28;19929;-80
2023/11/13 10:56:00;;;;;;;;;;;;;;;4.12;100.00;99931.03;4983700;28;19929;-80
2023/11/13 10:58:33;;;;;;;;;;;;;;;4.20;100.00;99922.50;4989567;28;19936;-82
2023/11/13 11:01:05;;;;;;;;;;;;;;;4.20;100.00;99933.25;4988462;28;19935;-80
2023/11/13 11:03:39;;;;;;;;;;;;;;;4.21;100.00;99924.09;4967463;28;19929;-80
2023/11/13 11:06:16;;;;;;;;;;;;;;;4.19;100.00;99921.66;4955194;28;21416;-80
2023/11/13 11:08:50;;;;;;;;;;;;;;;4.16;100.00;99918.69;4974228;28;19929;-81
2023/11/13 11:11:25;;;;;;;;;;;;;;;4.18;100.00;99913.84;4960633;28;19936;-80
2023/11/13 11:14:02;;;;;;;;;;;;;;;4.16;100.00;99907.91;4977670;28;20582;-80
2023/11/13 11:16:41;;;;;;;;;;;;;;;4.21;100.00;99899.84;4979696;28;19929;-80
2023/11/13 11:19:20;;;;;;;;;;;;;;;4.28;100.00;99894.25;4974681;28;19926;-80
2023/11/13 11:21:58;;;;;;;;;;;;;;;4.33;100.00;99891.59;4976993;28;20017;-80
2023/11/13 11:24:30;;;;;;;;;;;;;;;4.40;100.00;99893.00;4954905;28;19929;-80
2023/11/13 11:27:03;;;;;;;;;;;;;;;4.38;100.00;99886.28;4968698;28;19960;-80
2023/11/13 11:29:31;;;;;;;;;;;;;;;4.35;100.00;99879.50;4964845;28;19940;-80
2023/11/13 11:32:18;;;;;;;;;;;;;;;4.31;100.00;99867.63;4971811;28;19925;-80
2023/11/13 11:34:49;;;;;;;;;;;;;;;4.26;100.00;99856.81;4978939;28;19935;-80
2023/11/13 11:37:22;;;;;;;;;;;;;;;4.31;100.00;99839.88;4978488;28;19937;-79
2023/11/13 11:40:03;;;;;;;;;;;;;;;4.32;100.00;99836.91;4978664;28;19929;-81
2023/11/13 11:42:32;;;;;;;;;;;;;;;4.40;100.00;99830.22;4979136;28;19936;-81
2023/11/13 11:45:07;;;;;;;;;;;;;;;4.47;100.00;99814.66;4976721;28;20629;-80
2023/11/13 11:47:53;;;;;;;;;;;;;;;4.54;100.00;99799.09;4955312;28;19937;-81
2023/11/13 11:50:21;;;;;;;;;;;;;;;4.60;100.00;99799.91;4976839;28;19929;-81
2023/11/13 11:52:51;;;;;;;;;;;;;;;4.56;100.00;99794.22;4977935;28;19929;-81
2023/11/13 11:55:26;;;;;;;;;;;;;;;4.55;100.00;99792.59;4971235;28;19925;-81
2023/11/13 11:57:55;;;;;;;;;;;;;;;4.59;100.00;99784.81;4976860;28;19940;-81
2023/11/13 12:00:31;;;;;;;;;;;;;;;4.53;100.00;99773.19;4980068;28;19929;-82
2023/11/13 12:03:00;;;;;;;;;;;;;;;4.49;100.00;99766.72;4979716;28;19936;-80
2023/11/13 12:05:28;;;;;;;;;;;;;;;4.47;100.00;99755.38;4979732;28;20409;-82
2023/11/13 12:07:56;;;;;;;;;;;;;;;4.47;100.00;99736.50;4977526;28;19929;-82
2023/11/13 12:10:24;;;;;;;;;;;;;;;4.42;100.00;99723.03;4977318;28;19930;-82
2023/11/13 12:12:52;;;;;;;;;;;;;;;4.39;100.00;99713.59;4980820;28;20599;-81
2023/11/13 12:15:21;;;;;;;;;;;;;;;4.38;100.00;99703.88;4982263;28;19929;-82
2023/11/13 12:17:49;;;;;;;;;;;;;;;4.36;100.00;99697.94;4986845;28;19929;-81
2023/11/13 12:20:18;;;;;;;;;;;;;;;4.47;100.00;99692.59;4979346;28;19929;-80
2023/11/13 12:22:51;;;;;;;;;;;;;;;4.57;100.00;99681.84;4980104;28;19936;-81
2023/11/13 12:25:24;;;;;;;;;;;;;;;4.66;100.00;99674.09;4976445;28;20000;-82
2023/11/13 12:27:58;;;;;;;;;;;;;;;4.74;100.00;99673.56;4961381;28;20250;-81
2023/11/13 12:30:26;;;;;;;;;;;;;;;4.78;100.00;99682.75;4980781;28;19929;-81
2023/11/13 12:32:54;;;;;;;;;;;;;;;4.87;100.00;99677.63;4982026;28;19929;-81
2023/11/13 12:35:23;;;;;;;;;;;;;;;4.89;100.00;99668.22;4981236;28;19930;-81
2023/11/13 12:37:56;;;;;;;;;;;;;;;4.90;100.00;99658.22;4992128;28;19936;-81
2023/11/13 12:40:25;;;;;;;;;;;;;;;5.00;100.00;99662.81;4976861;28;19925;-81
2023/11/13 12:42:58;;;;;;;;;;;;;;;5.07;100.00;99658.00;4980482;28;19930;-82
2023/11/13 12:45:31;;;;;;;;;;;;;;;5.16;100.00;99642.88;4940842;28;22109;-81
2023/11/13 12:48:06;;;;;;;;;;;;;;;5.17;100.00;99644.50;4980385;28;19936;-82
2023/11/13 12:50:41;;;;;;;;;;;;;;;5.13;100.00;99613.75;4984400;28;19929;-81
2023/11/13 12:53:13;;;;;;;;;;;;;;;5.09;100.00;99616.16;4985266;28;19936;-82
2023/11/13 12:55:42;;;;;;;;;;;;;;;5.15;100.00;99605.41;4977929;28;19929;-81
2023/11/13 12:58:15;;;;;;;;;;;;;;;5.18;100.00;99594.06;4984882;28;20325;-82